createdAt,value
2023-11-01T05:02:23.199Z,6.00
2023-11-01T05:05:46.046Z,5.90
2023-11-01T05:09:08.830Z,5.90
2023-11-01T05:12:31.598Z,5.90
2023-11-01T05:15:54.003Z,5.80
2023-11-01T05:19:17.334Z,5.80
2023-11-01T05:22:39.464Z,5.80
2023-11-01T05:26:01.448Z,5.80
2023-11-01T05:29:23.433Z,5.80
2023-11-01T05:32:47.070Z,5.80
2023-11-01T05:36:10.683Z,5.70
2023-11-01T05:39:32.892Z,5.70
2023-11-01T05:42:55.128Z,5.80
2023-11-01T05:46:23.039Z,5.90
2023-11-01T05:49:45.232Z,5.90
2023-11-01T05:53:10.928Z,5.90
2023-11-01T05:56:33.706Z,5.90
2023-11-01T05:59:55.911Z,5.90
2023-11-01T06:03:18.120Z,6.10
2023-11-01T06:06:40.279Z,6.20
2023-11-01T06:10:03.168Z,6.30
2023-11-01T06:13:25.216Z,6.40
2023-11-01T06:16:47.859Z,6.50
2023-11-01T06:20:10.119Z,6.50
2023-11-01T06:23:32.323Z,6.70
2023-11-01T06:26:54.557Z,6.90
2023-11-01T06:30:17.508Z,7.20
2023-11-01T06:33:39.957Z,7.30
2023-11-01T06:37:02.456Z,7.60
2023-11-01T06:40:25.016Z,7.90
2023-11-01T06:43:48.424Z,8.10
2023-11-01T06:47:10.509Z,8.20
2023-11-01T06:50:32.704Z,8.40
2023-11-01T06:53:54.819Z,8.50
2023-11-01T06:57:16.902Z,8.60
2023-11-01T07:00:39.448Z,8.80
2023-11-01T07:04:02.197Z,9.10
2023-11-01T07:07:24.339Z,9.20
2023-11-01T07:10:46.377Z,9.40
2023-11-01T07:14:10.844Z,9.50
2023-11-01T07:17:33.140Z,9.60
2023-11-01T07:20:55.420Z,9.70
2023-11-01T07:24:17.622Z,9.90
2023-11-01T07:27:51.481Z,10.40
2023-11-01T07:31:15.211Z,11.10
2023-11-01T07:34:38.122Z,11.60
2023-11-01T07:38:02.408Z,12.60
2023-11-01T07:41:30.756Z,14.00
2023-11-01T07:44:55.643Z,15.20
2023-11-01T07:48:18.632Z,16.50
2023-11-01T07:51:50.458Z,17.40
2023-11-01T07:55:36.859Z,18.50
2023-11-01T07:59:05.111Z,18.90
2023-11-01T08:02:27.348Z,19.30
2023-11-01T08:05:49.471Z,19.20
2023-11-01T08:09:14.485Z,18.90
2023-11-01T08:12:38.688Z,18.20
2023-11-01T08:16:01.400Z,17.60
2023-11-01T08:19:23.593Z,17.10
2023-11-01T08:22:48.433Z,16.70
2023-11-01T08:26:21.196Z,16.40
2023-11-01T08:29:51.653Z,16.10
2023-11-01T08:33:14.183Z,16.10
2023-11-01T08:36:37.258Z,16.10
2023-11-01T08:39:59.443Z,16.40
2023-11-01T08:43:30.723Z,16.70
2023-11-01T08:46:56.508Z,17.10
2023-11-01T08:50:19.236Z,17.90
2023-11-01T08:53:46.893Z,19.20
2023-11-01T08:57:09.472Z,20.00
2023-11-01T09:00:39.519Z,20.70
2023-11-01T09:04:11.184Z,21.10
2023-11-01T09:07:34.025Z,21.00
2023-11-01T09:10:57.835Z,20.30
2023-11-01T09:14:20.829Z,20.10
2023-11-01T09:17:43.053Z,20.00
2023-11-01T09:21:05.605Z,20.40
2023-11-01T09:24:27.762Z,20.50
2023-11-01T09:27:49.798Z,20.40
2023-11-01T09:31:11.829Z,20.40
2023-11-01T09:34:34.176Z,20.20
2023-11-01T09:37:56.232Z,19.70
2023-11-01T09:41:21.755Z,19.10
2023-11-01T09:44:44.636Z,18.70
2023-11-01T09:48:07.152Z,18.30
2023-11-01T09:51:30.166Z,18.00
2023-11-01T09:54:52.631Z,17.90
2023-11-01T09:58:19.696Z,17.80
2023-11-01T10:01:42.190Z,17.60
2023-11-01T10:05:05.498Z,17.80
2023-11-01T10:08:27.601Z,18.00
2023-11-01T10:11:49.767Z,18.60
2023-11-01T10:15:21.920Z,19.10
2023-11-01T10:18:45.169Z,18.90
2023-11-01T10:22:07.226Z,18.80
2023-11-01T10:25:30.135Z,19.00
2023-11-01T10:28:52.273Z,19.10
2023-11-01T10:32:15.618Z,19.10
2023-11-01T10:35:37.822Z,18.80
2023-11-01T10:39:01.238Z,18.50
2023-11-01T10:42:26.545Z,18.40
2023-11-01T10:45:50.601Z,18.50
2023-11-01T10:49:13.390Z,18.60
2023-11-01T10:52:38.016Z,18.40
2023-11-01T10:56:05.039Z,18.20
2023-11-01T10:59:39.877Z,18.20
2023-11-01T11:03:35.953Z,18.70
2023-11-01T11:07:15.596Z,18.60
2023-11-01T11:10:44.827Z,18.30
2023-11-01T11:14:55.480Z,18.10
2023-11-01T11:18:26.244Z,17.70
2023-11-01T11:21:56.762Z,17.40
2023-11-01T11:25:40.079Z,17.20
2023-11-01T11:29:02.156Z,16.90
2023-11-01T11:32:25.783Z,16.70
2023-11-01T11:36:09.336Z,16.50
2023-11-01T11:40:09.193Z,16.20
2023-11-01T11:43:58.689Z,16.10
2023-11-01T11:47:30.158Z,16.00
2023-11-01T11:50:54.555Z,16.00
2023-11-01T11:54:17.423Z,16.00
2023-11-01T11:57:40.268Z,15.90
2023-11-01T12:01:03.142Z,15.90
2023-11-01T12:04:34.420Z,16.00
2023-11-01T12:07:58.751Z,16.10
2023-11-01T12:11:21.117Z,16.20
2023-11-01T12:14:45.721Z,16.10
2023-11-01T12:18:14.268Z,16.20
2023-11-01T12:21:41.873Z,16.10
2023-11-01T12:25:04.618Z,15.80
2023-11-01T12:28:26.826Z,15.60
2023-11-01T12:32:06.231Z,15.50
2023-11-01T12:35:28.696Z,15.40
2023-11-01T12:38:50.836Z,15.30
2023-11-01T12:42:26.673Z,15.10
2023-11-01T12:45:51.742Z,15.20
2023-11-01T12:49:14.299Z,15.20
2023-11-01T12:52:39.134Z,15.30
2023-11-01T12:56:05.082Z,15.50
2023-11-01T12:59:27.228Z,15.70
2023-11-01T13:02:49.346Z,16.10
2023-11-01T13:06:11.798Z,16.30
2023-11-01T13:09:34.233Z,16.40
2023-11-01T13:12:56.270Z,16.50
2023-11-01T13:16:18.454Z,16.40
2023-11-01T13:19:42.385Z,16.40
2023-11-01T13:23:04.436Z,16.30
2023-11-01T13:26:26.468Z,16.30
2023-11-01T13:29:49.621Z,16.20
2023-11-01T13:33:11.795Z,16.10
2023-11-01T13:36:34.069Z,16.00
2023-11-01T13:39:56.110Z,15.80
2023-11-01T13:43:18.958Z,15.80
2023-11-01T13:46:41.115Z,15.70
2023-11-01T13:50:03.338Z,15.60
2023-11-01T13:53:25.516Z,15.60
2023-11-01T13:56:47.524Z,15.60
2023-11-01T14:00:10.180Z,15.60
2023-11-01T14:03:37.920Z,15.60
2023-11-01T14:07:00.130Z,15.60
2023-11-01T14:10:22.800Z,15.60
2023-11-01T14:13:45.178Z,15.50
2023-11-01T14:17:07.284Z,15.40
2023-11-01T14:20:29.869Z,15.30
2023-11-01T14:23:53.249Z,15.20
2023-11-01T14:27:19.073Z,15.10
2023-11-01T14:30:42.196Z,15.10
2023-11-01T14:34:04.572Z,14.90
2023-11-01T14:37:26.767Z,14.90
2023-11-01T14:40:49.470Z,14.80
2023-11-01T14:44:11.519Z,14.80
2023-11-01T14:47:37.063Z,14.70
2023-11-01T14:50:59.231Z,14.60
2023-11-01T14:54:21.256Z,14.50
2023-11-01T14:57:46.256Z,14.50
2023-11-01T15:01:12.025Z,14.40
2023-11-01T15:04:34.269Z,14.40
2023-11-01T15:07:56.400Z,14.40
2023-11-01T15:11:18.534Z,14.40
2023-11-01T15:14:40.647Z,14.30
2023-11-01T15:18:02.864Z,14.20
2023-11-01T15:21:25.336Z,14.10
2023-11-01T15:24:54.199Z,14.00
2023-11-01T15:28:16.331Z,13.80
2023-11-01T15:31:40.088Z,13.70
2023-11-01T15:35:02.244Z,13.70
2023-11-01T15:38:24.442Z,13.60
2023-11-01T15:41:46.793Z,13.50
2023-11-01T15:45:11.318Z,13.40
2023-11-01T15:48:33.476Z,13.40
2023-11-01T15:51:55.888Z,13.30
2023-11-01T15:55:17.899Z,13.20
2023-11-01T15:58:39.935Z,13.20
2023-11-01T16:02:01.882Z,13.10
2023-11-01T16:05:24.032Z,12.90
2023-11-01T16:08:46.298Z,12.70
2023-11-01T16:12:08.743Z,12.60
2023-11-01T16:15:31.079Z,12.50
2023-11-01T16:18:53.284Z,12.20
2023-11-01T16:22:16.108Z,12.10
2023-11-01T16:25:38.516Z,11.90
2023-11-01T16:29:00.608Z,11.80
2023-11-01T16:32:22.859Z,11.70
2023-11-01T16:35:45.358Z,11.60
2023-11-01T16:39:07.643Z,11.60
2023-11-01T16:42:29.657Z,11.60
2023-11-01T16:45:51.666Z,11.50
2023-11-01T16:49:14.958Z,11.40
2023-11-01T16:52:37.035Z,11.30
2023-11-01T16:55:59.158Z,11.40
2023-11-01T16:59:21.814Z,11.50
2023-11-01T17:02:48.284Z,11.40
2023-11-01T17:06:12.946Z,11.50
2023-11-01T17:09:36.231Z,11.40
2023-11-01T17:12:58.303Z,11.40
2023-11-01T17:16:20.391Z,11.40
2023-11-01T17:19:44.286Z,11.40
2023-11-01T17:23:08.738Z,11.40
2023-11-01T17:26:31.820Z,11.40
2023-11-01T17:29:54.806Z,11.50
2023-11-01T17:33:17.234Z,11.50
2023-11-01T17:36:40.036Z,11.60
2023-11-01T17:40:02.387Z,11.50
2023-11-01T17:43:45.347Z,11.50
2023-11-01T17:47:24.549Z,11.60
2023-11-01T17:50:46.790Z,11.60
2023-11-01T17:54:10.736Z,11.60
2023-11-01T17:57:34.569Z,11.60
2023-11-01T18:00:56.759Z,11.70
2023-11-01T18:04:22.903Z,11.80
2023-11-01T18:07:45.221Z,11.80
2023-11-01T18:11:08.984Z,11.70
2023-11-01T18:14:31.329Z,11.60
2023-11-01T18:17:53.510Z,11.60
2023-11-01T18:21:19.663Z,11.40
2023-11-01T18:24:43.870Z,11.40
2023-11-01T18:28:07.868Z,11.30
2023-11-01T18:31:38.462Z,11.30
2023-11-01T18:35:02.304Z,11.30
2023-11-01T18:38:47.667Z,11.20
2023-11-01T18:42:10.803Z,11.10
2023-11-01T18:45:34.911Z,11.00
2023-11-01T18:48:58.331Z,10.70
2023-11-01T18:52:21.654Z,10.60
2023-11-01T18:55:44.669Z,10.40
2023-11-01T18:59:07.985Z,10.30
2023-11-01T19:02:36.012Z,10.30
2023-11-01T19:05:58.435Z,10.30
2023-11-01T19:09:21.985Z,10.20
2023-11-01T19:12:44.512Z,10.10
2023-11-01T19:16:15.977Z,10.00
2023-11-01T19:19:38.047Z,10.00
2023-11-01T19:23:00.849Z,10.00
2023-11-01T19:26:24.491Z,9.90
2023-11-01T19:29:47.330Z,9.80
2023-11-01T19:33:18.915Z,9.80
2023-11-01T19:36:45.078Z,9.70
2023-11-01T19:40:10.120Z,9.60
2023-11-01T19:43:33.458Z,9.60
2023-11-01T19:46:55.572Z,9.50
2023-11-01T19:50:25.730Z,9.50
2023-11-01T19:53:47.785Z,9.50
2023-11-01T19:57:10.262Z,9.60
2023-11-01T20:00:35.119Z,9.70
2023-11-01T20:03:57.202Z,9.70
2023-11-01T20:07:19.426Z,9.70
2023-11-01T20:10:41.483Z,9.60
2023-11-01T20:14:03.752Z,9.50
2023-11-01T20:17:26.272Z,9.50
2023-11-01T20:20:48.421Z,9.50
2023-11-01T20:24:11.870Z,9.60
2023-11-01T20:27:35.589Z,9.70
2023-11-01T20:30:58.811Z,9.80
2023-11-01T20:34:21.094Z,9.70
2023-11-01T20:37:43.496Z,9.70
2023-11-01T20:41:05.854Z,9.60
2023-11-01T20:44:27.953Z,9.60
2023-11-01T20:47:50.207Z,9.60
2023-11-01T20:51:15.145Z,9.60
2023-11-01T20:54:44.857Z,9.70
2023-11-01T20:58:07.704Z,9.80
2023-11-01T21:01:29.970Z,9.80
2023-11-01T21:04:52.003Z,9.80
2023-11-01T21:08:14.665Z,9.80
2023-11-01T21:11:36.913Z,9.90
2023-11-01T21:14:58.873Z,9.90
2023-11-01T21:18:21.091Z,10.00
2023-11-01T21:21:43.229Z,10.00
2023-11-01T21:25:06.749Z,10.10
2023-11-01T21:28:28.751Z,10.20
2023-11-01T21:31:51.084Z,10.20
2023-11-01T21:35:16.405Z,10.30
2023-11-01T21:38:38.726Z,10.40
2023-11-01T21:42:00.858Z,10.50
2023-11-01T21:45:28.811Z,10.50
2023-11-01T21:48:51.403Z,10.50
2023-11-01T21:52:22.095Z,10.50
2023-11-01T21:55:59.191Z,10.50
2023-11-01T21:59:22.195Z,10.50
2023-11-01T22:02:49.806Z,10.50
2023-11-01T22:06:29.303Z,10.50
2023-11-01T22:09:52.760Z,10.50
2023-11-01T22:13:15.083Z,10.50
2023-11-01T22:16:37.928Z,10.50
2023-11-01T22:19:59.983Z,10.60
2023-11-01T22:23:25.471Z,10.60
2023-11-01T22:26:48.202Z,10.60
2023-11-01T22:30:11.772Z,10.50
2023-11-01T22:33:33.808Z,10.60
2023-11-01T22:36:56.264Z,10.60
2023-11-01T22:40:18.311Z,10.60
2023-11-01T22:43:40.402Z,10.60
2023-11-01T22:47:02.386Z,10.60
2023-11-01T22:50:24.753Z,10.60
2023-11-01T22:53:49.314Z,10.60
2023-11-01T22:57:11.826Z,10.60
2023-11-01T23:00:35.642Z,10.60
2023-11-01T23:03:58.193Z,10.70
2023-11-01T23:07:20.650Z,10.70
2023-11-01T23:10:42.974Z,10.60
2023-11-01T23:14:05.513Z,10.60
2023-11-01T23:17:27.537Z,10.50
2023-11-01T23:20:49.682Z,10.50
2023-11-01T23:24:15.789Z,10.50
2023-11-01T23:27:37.833Z,10.40
